Time;durP1;ratioP1;P1;durP2;ratioP2;P2;SDS_P1;SDS_P2;PMS_P1;PMS_P2;Temp;Humidity;BMP_temperature;BMP_pressure;BME280_temperature;BME280_humidity;BME280_pressure;Samples;Min_cycle;Max_cycle;Signal;HPM_P1;HPM_P2
2023/10/29 00:00:47;;;;;;;5.60;3.47;;;12.50;99.90;;;;;;5107245;28;20181;-88
2023/10/29 00:03:13;;;;;;;3.40;3.10;;;12.90;99.90;;;;;;5073808;28;20232;-88
2023/10/29 00:05:38;;;;;;;3.40;3.10;;;12.80;99.90;;;;;;5077935;28;20267;-87
2023/10/29 00:08:04;;;;;;;7.17;5.40;;;12.40;99.90;;;;;;5076680;28;20196;-88
2023/10/29 00:10:30;;;;;;;4.70;3.10;;;12.50;99.90;;;;;;5076691;28;20189;-88
2023/10/29 00:12:55;;;;;;;6.07;3.90;;;12.60;99.90;;;;;;5089386;28;20581;-88
2023/10/29 00:15:21;;;;;;;5.90;3.97;;;12.50;99.90;;;;;;5070706;28;20177;-88
2023/10/29 00:17:47;;;;;;;5.53;3.40;;;12.70;99.90;;;;;;5074256;28;20266;-88
2023/10/29 00:20:13;;;;;;;4.37;3.20;;;12.80;99.90;;;;;;5076711;28;20484;-87
2023/10/29 00:22:38;;;;;;;5.77;3.20;;;12.40;99.90;;;;;;5073048;28;20254;-88
2023/10/29 00:25:04;;;;;;;3.20;2.90;;;12.80;99.90;;;;;;5077945;28;20450;-89
2023/10/29 00:27:29;;;;;;;5.10;3.00;;;12.10;99.90;;;;;;5075065;28;20510;-89
2023/10/29 00:29:55;;;;;;;3.63;3.33;;;12.70;99.90;;;;;;5073361;28;20781;-89
2023/10/29 00:32:20;;;;;;;4.47;3.27;;;12.20;99.90;;;;;;5073744;28;20201;-89
2023/10/29 00:34:47;;;;;;;4.90;3.53;;;12.10;99.90;;;;;;5075809;28;20706;-89
2023/10/29 00:37:13;;;;;;;4.35;2.97;;;12.30;99.90;;;;;;5073804;28;20177;-89
2023/10/29 00:39:39;;;;;;;5.28;3.60;;;12.40;99.90;;;;;;5072570;28;20700;-89
2023/10/29 00:42:05;;;;;;;3.77;2.80;;;12.30;99.90;;;;;;5074186;28;20196;-88
2023/10/29 00:44:30;;;;;;;3.20;2.90;;;12.20;99.90;;;;;;5073787;28;20205;-89
2023/10/29 00:46:57;;;;;;;4.70;3.13;;;12.10;99.90;;;;;;5072755;28;20181;-89
2023/10/29 00:49:22;;;;;;;3.85;2.70;;;12.30;99.90;;;;;;5071106;28;20192;-88
2023/10/29 00:51:49;;;;;;;3.60;3.20;;;12.20;99.90;;;;;;5074736;28;20309;-89
2023/10/29 00:54:14;;;;;;;6.05;2.92;;;11.70;99.90;;;;;;5072097;28;20681;-88
2023/10/29 00:56:40;;;;;;;3.63;2.97;;;12.50;99.90;;;;;;5076130;28;20177;-88
2023/10/29 00:59:06;;;;;;;3.90;2.90;;;12.10;99.90;;;;;;5072756;28;20181;-88
2023/10/29 01:01:33;;;;;;;3.67;2.97;;;12.50;99.90;;;;;;5076089;28;20830;-88
2023/10/29 01:03:59;;;;;;;3.63;2.55;;;12.10;99.90;;;;;;5071613;28;20208;-88
2023/10/29 01:06:26;;;;;;;2.85;2.45;;;11.60;99.90;;;;;;5071414;28;20565;-88
2023/10/29 01:08:52;;;;;;;3.35;2.42;;;12.40;99.90;;;;;;5071199;28;20674;-88
2023/10/29 01:11:18;;;;;;;3.42;2.75;;;12.00;99.90;;;;;;5074882;28;20224;-88
2023/10/29 01:13:43;;;;;;;3.17;2.87;;;12.20;99.90;;;;;;5071101;28;20228;-88
2023/10/29 01:16:09;;;;;;;3.20;2.63;;;11.90;99.90;;;;;;5072475;28;20579;-88
2023/10/29 01:18:34;;;;;;;3.20;2.90;;;12.10;99.90;;;;;;5072699;28;20183;-88
2023/10/29 01:21:00;;;;;;;7.33;2.70;;;12.00;99.90;;;;;;5088973;28;20630;-88
2023/10/29 01:23:26;;;;;;;5.10;2.80;;;11.80;99.90;;;;;;5074283;28;20209;-89
2023/10/29 01:25:53;;;;;;;3.85;2.60;;;12.20;99.90;;;;;;5072038;28;20554;-88
2023/10/29 01:28:19;;;;;;;3.10;2.30;;;11.90;99.90;;;;;;5072059;28;20537;-87
2023/10/29 01:30:44;;;;;;;2.73;2.13;;;12.30;99.90;;;;;;5071681;28;20234;-87
2023/10/29 01:33:10;;;;;;;2.60;2.20;;;12.40;99.90;;;;;;5070156;28;20223;-87
2023/10/29 01:35:35;;;;;;;3.33;2.30;;;12.10;99.90;;;;;;5076293;28;20620;-87
2023/10/29 01:38:01;;;;;;;3.60;2.33;;;12.40;99.90;;;;;;5089993;28;20193;-87
2023/10/29 01:40:27;;;;;;;3.17;2.43;;;12.20;99.90;;;;;;5091792;28;20222;-88
2023/10/29 01:42:52;;;;;;;2.93;2.17;;;12.10;99.90;;;;;;5086402;28;20538;-89
2023/10/29 01:45:18;;;;;;;3.20;2.20;;;12.80;99.90;;;;;;5078521;28;20185;-88
2023/10/29 01:47:43;;;;;;;2.40;1.90;;;12.20;99.90;;;;;;5070865;28;20196;-89
2023/10/29 01:50:09;;;;;;;5.50;1.97;;;12.00;99.90;;;;;;5088877;28;20184;-87
2023/10/29 01:52:38;;;;;;;2.43;2.10;;;12.20;99.90;;;;;;5075727;28;20728;-88
2023/10/29 01:55:06;;;;;;;2.67;2.00;;;12.70;99.90;;;;;;5088839;28;20232;-89
2023/10/29 01:57:34;;;;;;;1.80;1.70;;;12.30;99.90;;;;;;5073317;28;20540;-88
2023/10/29 02:00:00;;;;;;;2.90;1.90;;;12.20;99.90;;;;;;5073971;28;20172;-88
2023/10/29 02:02:25;;;;;;;2.07;1.87;;;12.40;99.90;;;;;;5072744;28;20215;-89
2023/10/29 02:04:51;;;;;;;1.70;1.60;;;12.60;99.90;;;;;;5067914;28;20653;-89
2023/10/29 02:07:16;;;;;;;4.60;2.00;;;12.60;99.90;;;;;;5070599;28;20197;-89
2023/10/29 02:09:42;;;;;;;3.73;2.03;;;12.80;99.90;;;;;;5103229;28;20180;-88
2023/10/29 02:12:07;;;;;;;2.10;1.90;;;13.00;99.90;;;;;;5126926;27;20268;-88
2023/10/29 02:14:36;;;;;;;1.87;1.30;;;12.50;99.90;;;;;;5090466;28;20311;-88
2023/10/29 02:17:01;;;;;;;2.78;1.80;;;12.20;99.90;;;;;;5093993;28;20177;-88
2023/10/29 02:19:27;;;;;;;1.83;1.30;;;12.70;99.90;;;;;;5096012;28;20216;-88
2023/10/29 02:21:55;;;;;;;3.27;1.87;;;12.60;99.90;;;;;;5093649;28;20198;-88
2023/10/29 02:24:21;;;;;;;1.92;1.70;;;12.60;99.90;;;;;;5096937;28;20201;-88
2023/10/29 02:26:46;;;;;;;2.90;1.70;;;12.70;99.90;;;;;;5093845;28;20165;-88
2023/10/29 02:29:12;;;;;;;2.80;1.97;;;12.60;99.90;;;;;;5096874;28;20214;-87
2023/10/29 02:31:38;;;;;;;2.10;1.40;;;12.40;99.90;;;;;;5099109;28;20212;-87
2023/10/29 02:34:03;;;;;;;2.37;1.80;;;12.70;99.90;;;;;;5096906;28;20208;-88
2023/10/29 02:36:29;;;;;;;2.20;1.83;;;12.60;99.90;;;;;;5098438;28;20177;-88
2023/10/29 02:38:54;;;;;;;2.00;1.70;;;12.40;99.90;;;;;;5096662;28;20188;-87
2023/10/29 02:41:20;;;;;;;1.50;1.40;;;12.60;99.90;;;;;;5099429;28;20173;-87
2023/10/29 02:43:46;;;;;;;1.80;1.50;;;12.50;99.90;;;;;;5096503;28;20207;-88
2023/10/29 02:46:11;;;;;;;1.80;1.70;;;12.50;99.90;;;;;;5096848;28;20173;-87
2023/10/29 02:48:37;;;;;;;3.50;1.60;;;12.70;99.90;;;;;;5127075;28;20185;-88
2023/10/29 02:51:03;;;;;;;2.77;1.73;;;12.60;99.90;;;;;;5072408;28;20177;-88
2023/10/29 02:53:28;;;;;;;2.73;1.97;;;12.60;99.90;;;;;;5074281;28;20220;-87
2023/10/29 02:55:58;;;;;;;2.17;1.50;;;12.80;99.90;;;;;;5071752;28;20176;-89
2023/10/29 02:58:24;;;;;;;4.30;1.60;;;12.70;99.90;;;;;;5071098;28;20729;-88
2023/10/29 03:00:49;;;;;;;2.10;1.90;;;12.50;99.90;;;;;;5072274;28;20204;-89
2023/10/29 03:03:15;;;;;;;1.93;1.70;;;12.60;99.90;;;;;;5072450;28;20220;-89
2023/10/29 03:05:40;;;;;;;3.30;2.03;;;12.40;99.90;;;;;;5071879;28;20177;-89
2023/10/29 03:08:06;;;;;;;2.63;1.50;;;12.30;99.90;;;;;;5101583;28;20180;-89
2023/10/29 03:10:35;;;;;;;1.70;1.50;;;12.30;99.90;;;;;;5071277;28;20189;-89
2023/10/29 03:13:01;;;;;;;1.50;1.40;;;12.40;99.90;;;;;;5071840;28;20227;-89
2023/10/29 03:15:26;;;;;;;4.33;1.57;;;12.50;99.90;;;;;;5084026;28;20188;-89
2023/10/29 03:17:52;;;;;;;3.47;1.90;;;12.70;99.90;;;;;;5067741;28;20179;-86
2023/10/29 03:20:18;;;;;;;4.20;2.08;;;12.50;99.90;;;;;;5070609;28;20189;-89
2023/10/29 03:22:44;;;;;;;5.43;2.10;;;11.80;99.90;;;;;;5071061;28;20205;-89
2023/10/29 03:25:09;;;;;;;2.40;1.80;;;12.30;99.90;;;;;;5100298;22;20222;-87
2023/10/29 03:27:35;;;;;;;1.67;1.43;;;12.60;99.90;;;;;;5025963;28;20194;-86
2023/10/29 03:30:00;;;;;;;1.53;1.43;;;12.50;99.90;;;;;;5028194;28;20193;-86
2023/10/29 03:32:26;;;;;;;1.83;1.53;;;12.20;99.90;;;;;;5030014;28;20216;-89
2023/10/29 03:34:51;;;;;;;2.73;1.80;;;12.30;99.90;;;;;;5044677;28;20174;-89
2023/10/29 03:37:18;;;;;;;4.23;1.97;;;12.30;99.90;;;;;;5064115;28;20194;-89
2023/10/29 03:39:43;;;;;;;2.42;1.55;;;12.20;99.90;;;;;;5034051;28;20189;-89
2023/10/29 03:42:09;;;;;;;1.67;1.53;;;12.10;99.90;;;;;;5031285;28;20178;-87
2023/10/29 03:44:35;;;;;;;4.37;2.33;;;12.50;99.90;;;;;;5031814;28;20209;-89
2023/10/29 03:47:00;;;;;;;2.20;2.00;;;12.20;99.90;;;;;;5026652;28;20174;-90
2023/10/29 03:49:26;;;;;;;1.80;1.70;;;12.20;99.90;;;;;;5033039;28;20444;-90
2023/10/29 03:51:51;;;;;;;2.83;1.50;;;11.90;99.90;;;;;;5029233;28;20221;-87
2023/10/29 03:54:17;;;;;;;3.23;1.60;;;12.00;99.90;;;;;;5032643;28;20206;-87
2023/10/29 03:56:42;;;;;;;3.67;1.90;;;12.40;99.90;;;;;;5029202;28;20190;-87
2023/10/29 03:59:08;;;;;;;2.20;1.37;;;11.90;99.90;;;;;;5026627;28;20279;-87
2023/10/29 04:01:34;;;;;;;2.70;1.60;;;12.10;99.90;;;;;;5031411;28;20206;-87
2023/10/29 04:03:59;;;;;;;1.50;1.40;;;12.00;99.90;;;;;;5031776;28;20737;-87
2023/10/29 04:06:25;;;;;;;2.87;1.80;;;11.80;99.90;;;;;;5033169;28;20197;-86
2023/10/29 04:08:51;;;;;;;2.10;1.60;;;12.10;99.90;;;;;;5033355;28;20202;-87
2023/10/29 04:11:16;;;;;;;1.88;1.55;;;12.30;99.90;;;;;;5031938;28;20190;-89
2023/10/29 04:13:42;;;;;;;1.63;1.53;;;11.80;99.90;;;;;;5029587;28;20744;-87
2023/10/29 04:16:08;;;;;;;2.90;1.60;;;11.80;99.90;;;;;;5031174;28;20572;-87
2023/10/29 04:18:34;;;;;;;2.70;1.63;;;12.30;99.90;;;;;;5032392;28;20278;-88
2023/10/29 04:21:08;;;;;;;2.60;1.97;;;12.00;99.90;;;;;;5029356;28;20220;-89
2023/10/29 04:23:36;;;;;;;2.22;1.70;;;11.90;99.90;;;;;;5027957;28;20231;-87
2023/10/29 04:26:02;;;;;;;2.38;1.90;;;11.80;99.90;;;;;;5030833;28;20198;-88
2023/10/29 04:28:27;;;;;;;1.60;1.50;;;11.90;99.90;;;;;;5032717;28;20190;-87
2023/10/29 04:30:55;;;;;;;2.63;1.70;;;12.00;99.90;;;;;;5038047;28;20189;-87
2023/10/29 04:33:21;;;;;;;2.03;1.70;;;11.60;99.90;;;;;;5030030;28;20225;-87
2023/10/29 04:35:46;;;;;;;1.63;1.50;;;12.20;99.90;;;;;;5033476;28;20558;-87
2023/10/29 04:38:12;;;;;;;2.50;1.57;;;11.80;99.90;;;;;;5030004;28;20206;-87
2023/10/29 04:40:38;;;;;;;1.57;1.47;;;12.00;99.90;;;;;;5032177;28;20205;-87
2023/10/29 04:43:03;;;;;;;2.90;1.90;;;11.20;99.90;;;;;;5033056;28;20518;-86
2023/10/29 04:45:29;;;;;;;3.33;1.50;;;11.90;99.90;;;;;;5048755;28;20528;-85
2023/10/29 04:47:54;;;;;;;2.47;1.80;;;11.70;99.90;;;;;;5046208;28;20218;-88
2023/10/29 04:50:20;;;;;;;1.63;1.47;;;11.90;99.90;;;;;;5038320;28;20278;-88
2023/10/29 04:52:46;;;;;;;2.03;1.92;;;11.90;99.90;;;;;;5040608;28;20240;-87
2023/10/29 04:55:11;;;;;;;1.63;1.33;;;12.00;99.90;;;;;;5045284;28;20221;-86
2023/10/29 04:57:37;;;;;;;2.13;1.43;;;12.00;99.90;;;;;;5029715;28;20544;-86
2023/10/29 05:00:04;;;;;;;2.13;1.70;;;12.00;99.90;;;;;;5031038;28;20178;-86
2023/10/29 05:02:30;;;;;;;3.13;1.80;;;11.70;99.90;;;;;;5027734;28;20659;-87
2023/10/29 05:04:56;;;;;;;2.00;1.60;;;12.20;99.90;;;;;;5031162;28;20193;-86
2023/10/29 05:07:21;;;;;;;2.87;1.70;;;12.60;99.90;;;;;;5029900;28;20182;-86
2023/10/29 05:09:47;;;;;;;1.40;1.30;;;11.90;99.90;;;;;;5030912;28;20178;-87
2023/10/29 05:12:12;;;;;;;2.57;1.60;;;12.00;99.90;;;;;;5030242;28;20217;-88
2023/10/29 05:14:38;;;;;;;2.10;1.80;;;12.20;99.90;;;;;;5019492;28;20671;-87
2023/10/29 05:17:04;;;;;;;1.70;1.60;;;12.00;99.90;;;;;;5026409;28;20564;-87
2023/10/29 05:19:29;;;;;;;1.90;1.70;;;12.20;99.90;;;;;;5025040;28;20552;-87
2023/10/29 05:21:55;;;;;;;1.87;1.60;;;12.10;99.90;;;;;;5025091;28;20196;-87
2023/10/29 05:24:20;;;;;;;2.30;1.70;;;11.60;99.90;;;;;;5025890;28;20288;-88
2023/10/29 05:26:46;;;;;;;2.23;1.50;;;11.70;99.90;;;;;;5030241;28;20782;-86
2023/10/29 05:29:12;;;;;;;1.67;1.50;;;11.70;99.90;;;;;;5031665;28;20197;-86
2023/10/29 05:31:37;;;;;;;1.30;1.20;;;12.10;99.90;;;;;;5033090;28;20476;-86
2023/10/29 05:34:03;;;;;;;1.90;1.40;;;12.10;99.90;;;;;;5029990;28;20251;-85
2023/10/29 05:36:28;;;;;;;1.57;1.00;;;11.60;99.90;;;;;;5031965;28;20181;-85
2023/10/29 05:38:54;;;;;;;1.30;1.20;;;11.70;99.90;;;;;;5031281;28;20181;-85
2023/10/29 05:41:19;;;;;;;1.30;1.10;;;11.80;99.90;;;;;;5029280;28;20177;-86
2023/10/29 05:43:45;;;;;;;3.90;1.30;;;12.20;99.90;;;;;;5030727;28;20217;-86
2023/10/29 05:46:12;;;;;;;1.90;1.40;;;11.90;99.90;;;;;;5030268;28;20238;-85
2023/10/29 05:48:37;;;;;;;1.40;1.30;;;12.60;99.90;;;;;;5032362;28;20181;-86
2023/10/29 05:51:03;;;;;;;1.30;1.10;;;12.70;99.90;;;;;;5028337;28;20193;-86
2023/10/29 05:53:28;;;;;;;1.90;1.20;;;12.60;99.90;;;;;;5041501;28;20228;-86
2023/10/29 05:55:54;;;;;;;1.40;1.30;;;12.80;99.90;;;;;;5049708;28;20187;-85
2023/10/29 05:58:19;;;;;;;3.13;1.00;;;12.50;99.90;;;;;;5051144;28;20186;-85
2023/10/29 06:00:45;;;;;;;1.23;1.07;;;12.40;99.90;;;;;;5053970;28;20185;-86
2023/10/29 06:03:11;;;;;;;7.23;1.60;;;12.80;99.90;;;;;;5031920;28;20202;-86
2023/10/29 06:05:36;;;;;;;1.90;1.50;;;12.80;99.90;;;;;;5028563;28;20198;-86
2023/10/29 06:08:04;;;;;;;1.87;1.40;;;12.70;99.90;;;;;;5032097;28;20277;-86
2023/10/29 06:10:29;;;;;;;4.32;1.33;;;12.80;99.90;;;;;;5031800;28;20210;-86
2023/10/29 06:12:55;;;;;;;1.50;1.40;;;13.10;99.90;;;;;;5028984;28;20229;-86
2023/10/29 06:15:20;;;;;;;1.90;1.33;;;13.00;99.90;;;;;;5031074;28;20261;-88
2023/10/29 06:17:46;;;;;;;2.10;1.30;;;13.00;99.90;;;;;;5031340;28;20189;-87
2023/10/29 06:20:16;;;;;;;1.60;1.40;;;13.20;99.90;;;;;;5031601;28;20190;-88
2023/10/29 06:22:43;;;;;;;1.65;1.30;;;13.00;99.90;;;;;;5028342;28;20230;-88
2023/10/29 06:25:09;;;;;;;3.85;1.60;;;13.00;99.90;;;;;;5030854;28;20194;-88
2023/10/29 06:27:34;;;;;;;2.00;1.73;;;12.90;99.90;;;;;;5033550;28;20256;-87
2023/10/29 06:30:00;;;;;;;3.37;1.70;;;13.20;99.90;;;;;;5030260;28;20561;-87
2023/10/29 06:32:25;;;;;;;1.73;1.20;;;13.00;99.90;;;;;;5027478;28;20755;-87
2023/10/29 06:34:51;;;;;;;1.33;1.23;;;13.40;99.90;;;;;;5030465;28;20312;-86
2023/10/29 06:37:16;;;;;;;1.43;1.33;;;13.10;99.90;;;;;;5029262;28;20186;-88
2023/10/29 06:39:42;;;;;;;1.33;1.23;;;13.50;99.90;;;;;;5030343;28;20202;-87
2023/10/29 06:42:08;;;;;;;2.33;1.80;;;13.30;99.90;;;;;;5032392;28;20652;-85
2023/10/29 06:44:34;;;;;;;2.35;1.52;;;13.30;99.90;;;;;;5029639;28;20316;-85
2023/10/29 06:46:59;;;;;;;2.30;1.40;;;13.50;99.90;;;;;;5030674;28;20210;-85
2023/10/29 06:49:25;;;;;;;2.97;1.43;;;13.60;99.90;;;;;;5029688;28;20194;-89
2023/10/29 06:51:50;;;;;;;3.20;1.70;;;13.00;99.90;;;;;;5024927;28;20234;-89
2023/10/29 06:54:16;;;;;;;2.63;1.50;;;13.00;99.90;;;;;;5029517;28;20249;-89
2023/10/29 06:56:42;;;;;;;1.67;1.57;;;13.90;99.90;;;;;;5033708;28;20174;-86
2023/10/29 06:59:07;;;;;;;2.47;1.43;;;13.60;99.90;;;;;;5027994;28;20193;-85
2023/10/29 07:01:33;;;;;;;2.90;1.40;;;13.60;99.90;;;;;;5028518;28;20229;-85
2023/10/29 07:03:58;;;;;;;1.70;1.50;;;13.40;99.90;;;;;;5045790;28;20265;-85
2023/10/29 07:06:24;;;;;;;2.20;1.47;;;13.80;99.90;;;;;;5047437;28;20681;-86
2023/10/29 07:08:49;;;;;;;7.30;1.60;;;13.20;99.90;;;;;;5031190;28;20183;-86
2023/10/29 07:11:15;;;;;;;2.53;1.50;;;13.80;99.90;;;;;;5045428;28;20193;-85
2023/10/29 07:13:41;;;;;;;2.10;1.50;;;13.10;99.90;;;;;;5048373;28;20210;-86
2023/10/29 07:16:06;;;;;;;2.33;1.67;;;13.20;99.90;;;;;;5040018;28;20269;-85
2023/10/29 07:18:32;;;;;;;2.70;1.80;;;13.30;99.90;;;;;;5032978;28;20678;-86
2023/10/29 07:20:57;;;;;;;3.00;1.70;;;13.30;99.90;;;;;;5032363;28;20187;-85
2023/10/29 07:23:23;;;;;;;4.60;1.93;;;13.40;99.90;;;;;;5031641;28;20284;-91
2023/10/29 07:25:50;;;;;;;2.73;1.93;;;13.40;99.90;;;;;;5028839;28;20255;-86
2023/10/29 07:28:16;;;;;;;1.98;1.77;;;13.50;99.90;;;;;;5029753;28;20448;-89
2023/10/29 07:30:41;;;;;;;1.90;1.77;;;13.30;99.90;;;;;;5033651;28;20182;-89
2023/10/29 07:33:11;;;;;;;2.60;1.97;;;13.20;99.90;;;;;;5036750;28;20225;-89
2023/10/29 07:35:37;;;;;;;2.72;2.10;;;13.70;99.90;;;;;;5054479;28;20182;-89
2023/10/29 07:38:03;;;;;;;3.35;1.67;;;13.60;99.90;;;;;;5047437;28;20201;-89
2023/10/29 07:40:29;;;;;;;2.67;1.93;;;14.00;99.90;;;;;;5044032;28;20182;-89
2023/10/29 07:42:54;;;;;;;1.67;1.57;;;13.70;99.90;;;;;;5029415;28;20465;-89
2023/10/29 07:45:20;;;;;;;3.03;2.10;;;13.40;99.90;;;;;;5027236;28;20269;-89
2023/10/29 07:47:45;;;;;;;2.33;1.80;;;13.80;99.90;;;;;;5031183;28;20190;-89
2023/10/29 07:50:11;;;;;;;2.47;1.67;;;14.10;99.90;;;;;;5028129;28;20191;-89
2023/10/29 07:52:39;;;;;;;2.37;2.07;;;13.80;99.90;;;;;;5028881;28;20213;-89
2023/10/29 07:55:07;;;;;;;1.95;1.73;;;14.30;99.90;;;;;;5030753;28;20213;-89
2023/10/29 07:57:33;;;;;;;3.45;1.85;;;13.80;99.90;;;;;;5026185;28;20182;-89
2023/10/29 07:59:59;;;;;;;2.20;2.00;;;14.30;99.90;;;;;;5044082;28;20175;-89
2023/10/29 08:02:24;;;;;;;2.47;2.27;;;14.30;99.90;;;;;;5048445;28;20194;-89
2023/10/29 08:04:50;;;;;;;3.57;2.13;;;13.90;99.90;;;;;;5036186;28;20166;-89
2023/10/29 08:07:16;;;;;;;2.10;1.90;;;14.20;99.90;;;;;;5033351;28;20191;-90
2023/10/29 08:09:41;;;;;;;1.37;1.27;;;14.70;99.90;;;;;;5030975;28;20187;-89
2023/10/29 08:12:07;;;;;;;3.57;1.47;;;14.30;99.90;;;;;;5031197;28;20468;-89
2023/10/29 08:14:33;;;;;;;4.03;2.07;;;14.70;99.90;;;;;;5030880;28;20198;-90
2023/10/29 08:16:58;;;;;;;2.87;2.57;;;15.10;99.90;;;;;;5030684;28;20186;-89
2023/10/29 08:19:26;;;;;;;3.00;2.40;;;15.00;99.90;;;;;;5033289;28;20183;-89
2023/10/29 08:21:51;;;;;;;2.10;1.90;;;15.60;99.90;;;;;;5034181;28;20190;-90
2023/10/29 08:24:17;;;;;;;2.27;2.00;;;16.00;99.90;;;;;;5033330;28;20297;-89
2023/10/29 08:26:42;;;;;;;1.73;1.47;;;15.10;99.90;;;;;;5034164;28;20197;-89
2023/10/29 08:29:09;;;;;;;2.17;1.60;;;15.60;99.90;;;;;;5029700;28;20711;-90
2023/10/29 08:31:35;;;;;;;1.98;1.88;;;15.60;99.90;;;;;;5030817;28;20194;-90
2023/10/29 08:34:01;;;;;;;1.40;1.20;;;15.60;99.40;;;;;;5031315;28;20335;-89
2023/10/29 08:36:28;;;;;;;1.20;1.10;;;15.70;98.60;;;;;;5031456;28;20266;-90
2023/10/29 08:38:53;;;;;;;1.33;1.20;;;15.90;97.90;;;;;;5034139;28;20182;-89
2023/10/29 08:41:20;;;;;;;1.27;1.03;;;16.40;97.50;;;;;;5031611;28;20210;-89
2023/10/29 08:43:45;;;;;;;1.20;1.10;;;16.10;97.10;;;;;;5031364;28;20202;-90
2023/10/29 08:46:11;;;;;;;1.47;1.37;;;16.20;96.80;;;;;;5035896;28;20183;-89
2023/10/29 08:48:37;;;;;;;3.47;1.57;;;16.40;96.40;;;;;;5031963;28;20186;-90
2023/10/29 08:51:02;;;;;;;1.20;1.00;;;16.80;96.60;;;;;;5041596;28;20192;-90
2023/10/29 08:53:28;;;;;;;2.60;1.57;;;16.30;96.00;;;;;;5049038;28;20227;-89
2023/10/29 08:55:54;;;;;;;2.50;1.53;;;16.30;96.00;;;;;;5051481;28;20201;-90
2023/10/29 08:58:22;;;;;;;1.27;1.17;;;16.90;96.40;;;;;;5046694;28;20182;-90
2023/10/29 09:00:47;;;;;;;1.75;1.20;;;17.10;95.90;;;;;;5048954;28;20544;-90
2023/10/29 09:03:14;;;;;;;1.73;1.20;;;16.70;95.90;;;;;;5035478;28;20236;-90
2023/10/29 09:05:40;;;;;;;2.22;1.40;;;16.60;95.50;;;;;;5035001;28;20186;-90
2023/10/29 09:08:06;;;;;;;1.52;1.35;;;16.90;96.10;;;;;;5030132;28;20567;-90
2023/10/29 09:10:32;;;;;;;1.63;1.40;;;16.80;95.70;;;;;;5032570;28;20212;-89
2023/10/29 09:12:58;;;;;;;1.50;1.40;;;16.90;95.50;;;;;;5032789;28;20292;-90
2023/10/29 09:15:24;;;;;;;1.75;1.23;;;16.90;95.30;;;;;;5042732;28;20762;-90
2023/10/29 09:17:49;;;;;;;1.80;1.20;;;17.60;95.40;;;;;;5037345;28;20225;-90
2023/10/29 09:20:15;;;;;;;1.40;1.20;;;17.30;95.20;;;;;;5038753;28;20194;-89
2023/10/29 09:22:40;;;;;;;3.33;1.90;;;17.20;94.80;;;;;;5036613;28;20248;-90
2023/10/29 09:25:06;;;;;;;2.10;1.50;;;17.70;95.10;;;;;;5035554;28;20205;-90
2023/10/29 09:27:32;;;;;;;3.00;1.90;;;17.40;94.90;;;;;;5033620;28;20190;-90
2023/10/29 09:29:57;;;;;;;2.13;1.50;;;18.00;95.10;;;;;;5033543;28;20836;-90
2023/10/29 09:32:23;;;;;;;2.13;1.50;;;18.00;94.80;;;;;;5029679;28;20745;-90
2023/10/29 09:34:50;;;;;;;1.60;1.40;;;18.20;94.60;;;;;;5032516;28;20189;-89
2023/10/29 09:37:15;;;;;;;2.15;1.63;;;17.70;94.10;;;;;;5030682;28;20674;-90
2023/10/29 09:39:43;;;;;;;2.30;1.63;;;18.00;94.50;;;;;;5027686;28;20253;-90
2023/10/29 09:42:11;;;;;;;1.85;1.50;;;18.00;95.00;;;;;;5032437;28;20199;-89
2023/10/29 09:44:40;;;;;;;2.10;1.80;;;17.40;95.00;;;;;;5032523;28;20178;-90
2023/10/29 09:47:14;;;;;;;4.60;1.80;;;17.80;95.50;;;;;;5032318;28;20221;-90
2023/10/29 09:49:40;;;;;;;2.83;1.70;;;17.70;95.80;;;;;;5032604;28;20232;-90
2023/10/29 09:52:06;;;;;;;2.03;1.77;;;17.90;96.60;;;;;;5029787;28;20205;-90
2023/10/29 09:54:32;;;;;;;3.33;2.25;;;17.80;95.60;;;;;;5033157;28;20566;-90
2023/10/29 09:56:57;;;;;;;2.90;2.50;;;17.50;95.50;;;;;;5014886;28;20186;-90
2023/10/29 09:59:23;;;;;;;4.47;2.30;;;18.20;96.30;;;;;;5031278;28;20603;-89
2023/10/29 10:01:49;;;;;;;1.60;1.50;;;18.20;95.60;;;;;;5031031;28;20193;-90
2023/10/29 10:04:14;;;;;;;1.53;1.43;;;18.30;95.20;;;;;;5036428;28;20262;-89
2023/10/29 10:06:41;;;;;;;3.60;1.70;;;18.20;95.10;;;;;;5031608;28;20193;-90
2023/10/29 10:09:08;;;;;;;1.88;1.30;;;18.00;94.20;;;;;;5032521;28;20193;-90
2023/10/29 10:11:33;;;;;;;1.45;1.13;;;18.20;93.60;;;;;;5045150;28;20197;-90
2023/10/29 10:13:59;;;;;;;2.10;1.67;;;18.70;93.20;;;;;;5035111;28;20245;-90
2023/10/29 10:16:25;;;;;;;2.13;1.10;;;18.40;93.20;;;;;;5045163;28;20662;-90
2023/10/29 10:18:50;;;;;;;1.97;1.37;;;18.10;92.70;;;;;;5030706;28;20193;-90
2023/10/29 10:21:20;;;;;;;1.53;1.30;;;18.50;93.50;;;;;;5033460;28;21003;-90
2023/10/29 10:23:54;;;;;;;3.28;1.70;;;18.30;93.10;;;;;;5031935;28;20257;-90
2023/10/29 10:26:31;;;;;;;1.42;1.33;;;19.00;93.90;;;;;;5032762;28;20558;-90
2023/10/29 10:28:58;;;;;;;1.65;1.52;;;18.20;93.20;;;;;;5031889;28;20261;-89
2023/10/29 10:31:27;;;;;;;2.65;1.80;;;18.00;93.80;;;;;;5033563;28;20182;-89
2023/10/29 10:34:16;;;;;;;3.05;1.92;;;18.20;94.50;;;;;;5033190;28;20231;-89
2023/10/29 10:36:43;;;;;;;2.90;1.80;;;17.60;94.70;;;;;;5029269;28;20178;-89
2023/10/29 10:39:10;;;;;;;2.92;2.20;;;17.80;95.00;;;;;;5030772;28;20683;-90
2023/10/29 10:41:45;;;;;;;3.05;2.03;;;17.50;95.20;;;;;;5029653;28;20643;-90
2023/10/29 10:44:24;;;;;;;3.42;2.42;;;18.00;95.80;;;;;;5026826;28;20204;-90
2023/10/29 10:46:52;;;;;;;3.30;1.77;;;18.10;96.00;;;;;;5027770;28;20174;-90
2023/10/29 10:49:19;;;;;;;1.83;1.70;;;18.30;95.40;;;;;;5028648;28;20181;-89
2023/10/29 10:51:49;;;;;;;2.28;1.92;;;18.30;95.10;;;;;;5027165;28;20179;-90
2023/10/29 10:54:18;;;;;;;2.15;1.90;;;17.90;94.90;;;;;;5031630;28;20205;-90
2023/10/29 10:56:44;;;;;;;2.95;1.70;;;18.30;95.40;;;;;;5031878;28;20186;-90
2023/10/29 10:59:10;;;;;;;2.37;1.70;;;18.10;95.30;;;;;;5035562;28;20677;-89
2023/10/29 11:01:37;;;;;;;2.40;2.20;;;18.50;95.30;;;;;;5038528;28;20433;-90
2023/10/29 11:04:08;;;;;;;2.40;2.20;;;17.80;95.40;;;;;;5032915;28;20202;-89
2023/10/29 11:06:36;;;;;;;5.20;2.33;;;18.20;95.70;;;;;;5052748;28;20181;-90
2023/10/29 11:09:05;;;;;;;2.85;2.30;;;18.30;95.10;;;;;;5033301;28;20175;-89
2023/10/29 11:11:35;;;;;;;2.92;2.13;;;18.20;95.40;;;;;;5032635;28;20204;-90
2023/10/29 11:14:11;;;;;;;3.10;2.40;;;18.40;95.80;;;;;;5030082;28;20293;-90
2023/10/29 11:16:54;;;;;;;2.60;2.40;;;18.30;95.70;;;;;;5031381;28;20180;-90
2023/10/29 11:19:36;;;;;;;2.17;1.95;;;18.00;95.70;;;;;;5022555;28;20182;-90
2023/10/29 11:22:13;;;;;;;3.05;1.90;;;18.00;95.80;;;;;;5045461;28;20652;-90
2023/10/29 11:24:40;;;;;;;2.03;1.75;;;18.30;96.00;;;;;;5031554;28;20185;-90
2023/10/29 11:27:33;;;;;;;2.00;1.70;;;18.40;95.80;;;;;;5031120;28;20297;-90
2023/10/29 11:30:16;;;;;;;2.95;2.08;;;18.00;95.10;;;;;;5034559;28;20178;-90
2023/10/29 11:32:43;;;;;;;2.30;1.90;;;17.80;94.90;;;;;;5029083;28;20244;-90
2023/10/29 11:35:15;;;;;;;2.17;2.00;;;18.60;95.20;;;;;;5030319;28;20233;-90
2023/10/29 11:37:44;;;;;;;2.38;2.05;;;20.40;96.20;;;;;;5029320;28;20186;-89
2023/10/29 11:40:25;;;;;;;1.58;1.48;;;18.50;94.30;;;;;;5029693;28;20682;-89
2023/10/29 11:42:54;;;;;;;2.10;1.65;;;19.00;93.80;;;;;;5029497;28;20209;-90
2023/10/29 11:45:28;;;;;;;3.20;1.55;;;18.80;93.80;;;;;;5028724;28;20190;-90
2023/10/29 11:48:06;;;;;;;2.40;2.20;;;19.30;93.30;;;;;;5026243;28;20205;-88
2023/10/29 11:50:32;;;;;;;1.70;1.45;;;18.70;92.50;;;;;;5029995;28;20190;-89
2023/10/29 11:52:57;;;;;;;1.87;1.70;;;19.90;93.10;;;;;;5026069;28;20215;-92
2023/10/29 11:55:27;;;;;;;2.13;1.67;;;19.20;92.40;;;;;;5036276;28;20436;-93
2023/10/29 11:57:54;;;;;;;1.35;1.25;;;20.10;93.00;;;;;;5033655;28;20192;-92
2023/10/29 12:00:21;;;;;;;3.10;1.90;;;19.90;92.80;;;;;;5032453;28;20541;-92
2023/10/29 12:02:48;;;;;;;2.83;2.05;;;19.70;93.10;;;;;;5036666;28;20209;-93
2023/10/29 12:05:17;;;;;;;2.80;2.08;;;20.70;91.70;;;;;;5035100;28;20206;-92
2023/10/29 12:07:43;;;;;;;2.58;1.10;;;19.70;91.60;;;;;;5035483;28;20197;-91
2023/10/29 12:10:10;;;;;;;1.57;1.20;;;20.00;86.40;;;;;;5056083;28;20182;-92
2023/10/29 12:12:36;;;;;;;1.85;1.60;;;20.00;87.90;;;;;;5054764;28;20209;-92
2023/10/29 12:15:02;;;;;;;1.10;0.97;;;20.00;87.30;;;;;;5049679;28;20185;-92
2023/10/29 12:17:28;;;;;;;1.17;1.08;;;20.10;83.60;;;;;;5033238;28;20186;-91
2023/10/29 12:19:54;;;;;;;1.70;1.00;;;20.20;83.00;;;;;;5032548;28;20288;-90
2023/10/29 12:22:27;;;;;;;1.50;1.00;;;20.80;83.80;;;;;;5033574;28;20436;-90
2023/10/29 12:25:00;;;;;;;1.13;0.90;;;20.60;80.50;;;;;;5029707;28;20273;-91
2023/10/29 12:27:30;;;;;;;1.35;1.25;;;20.70;79.30;;;;;;5035226;28;20212;-91
2023/10/29 12:29:56;;;;;;;1.25;0.90;;;20.50;78.60;;;;;;5049569;28;20183;-90
2023/10/29 12:32:26;;;;;;;1.20;1.10;;;21.00;79.20;;;;;;5034422;28;20202;-91
2023/10/29 12:34:56;;;;;;;2.80;1.17;;;20.60;78.00;;;;;;5034053;28;20175;-90
2023/10/29 12:37:26;;;;;;;1.98;1.15;;;21.00;76.90;;;;;;5034233;28;20584;-91
2023/10/29 12:39:55;;;;;;;1.80;0.80;;;21.10;76.30;;;;;;5033006;28;20933;-90
2023/10/29 12:42:41;;;;;;;1.35;0.80;;;20.80;73.50;;;;;;5030871;28;20241;-91
2023/10/29 12:45:08;;;;;;;1.58;0.70;;;21.40;74.80;;;;;;5030947;28;20228;-90